Cape Sakura — 7JHZ — position and weather

sailwx.info

Track history (hours):
 
Tides and Currents Weather Stations Pressure Air Temp Water Temp Dewpoint Dewpoint Depression Visibility Wind Speed Wind Dir Waves Ship Positions

Cape Sakura

Last reported at 2015-Jan-20 15:21 UTC. Time now 2015-Jan-29 22:28 UTC.
Position S 26°40' E 154°04'.
Warning: this ship's position is 9 days out of date.

Length 292 m; draft 15.6 m.

Type: Cargo ship. MMSI: 432786000.

Date/timePositionNaut miles runAvg speedWind from/ knotsBaromVisibWave heightAir tempDewpointWater temp
2015-Jan-20 15:21S 26°40' E 154°04'10 9.3
2015-Jan-20 14:14S 26°50' E 154°04'1010.1
2015-Jan-20 13:14S 27°00' E 154°04'4010.9
2015-Jan-20 09:31S 27°41' E 154°04'290 9.4
2015-Jan-19 02:33S 32°23' E 152°48'9 8.7
2015-Jan-19 01:32S 32°31' E 152°44'1010.7
2015-Jan-19 00:33S 32°37' E 152°34'1212.3
2015-Jan-18 23:33S 32°45' E 152°23'1212.1
2015-Jan-18 22:34S 32°51' E 152°10'1211.7
2015-Jan-18 21:33S 32°55' E 151°57'8 7.7
2015-Jan-18 20:34S 32°55' E 151°48'2 2.1
2015-Jan-18 19:34S 32°53' E 151°46'0 0.0
2015-Jan-18 17:10S 32°53' E 151°46'0 0.0
2015-Jan-18 16:10S 32°53' E 151°46'0 0.0
2015-Jan-18 15:28S 32°53' E 151°46'0 0.0
2015-Jan-18 14:22S 32°53' E 151°46'0 0.0
2015-Jan-18 13:28S 32°53' E 151°46'0 0.0
2015-Jan-18 11:25S 32°53' E 151°46'0 0.0
2015-Jan-18 10:10S 32°53' E 151°46'0 0.0
2015-Jan-18 09:28S 32°53' E 151°46'0 0.0
2015-Jan-18 08:31S 32°53' E 151°46'0 0.0
2015-Jan-18 07:28S 32°53' E 151°46'0 0.0
2015-Jan-18 06:28S 32°53' E 151°46'0 0.0
2015-Jan-18 05:31S 32°53' E 151°46'0 0.0
2015-Jan-18 04:31S 32°53' E 151°46'0 0.0
2015-Jan-18 03:31S 32°53' E 151°46'0 0.0
2015-Jan-18 02:22S 32°53' E 151°46'0 0.0
2015-Jan-18 01:28S 32°53' E 151°46'0 0.0
2015-Jan-18 00:10S 32°53' E 151°46'0 0.0
2015-Jan-17 23:04S 32°53' E 151°46'0 0.0
2015-Jan-17 22:16S 32°53' E 151°46'0 0.0
2015-Jan-17 21:28S 32°53' E 151°46'0 0.0
2015-Jan-17 20:28S 32°53' E 151°46'0 0.0
2015-Jan-17 15:22S 32°53' E 151°46'0 0.0
2015-Jan-17 14:16S 32°53' E 151°46'0 0.0
2015-Jan-17 13:16S 32°53' E 151°46'0 0.0
2015-Jan-17 12:31S 32°53' E 151°46'0 0.0
2015-Jan-17 11:28S 32°53' E 151°46'0 0.0
2015-Jan-17 10:28S 32°53' E 151°46'0 0.0
2015-Jan-17 09:04S 32°53' E 151°46'0 0.0
2015-Jan-17 07:28S 32°53' E 151°46'0 0.0
2015-Jan-17 06:16S 32°53' E 151°46'1 1.2
2015-Jan-17 05:33S 32°54' E 151°46'5 5.1
2015-Jan-17 04:34S 32°57' E 151°51'9 8.5
2015-Jan-17 03:33S 33°05' E 151°51'1110.8
2015-Jan-17 02:32S 33°14' E 151°43'9 0.8
2015-Jan-16 16:12S 33°21' E 151°36'0 0.1
2015-Jan-16 15:33S 33°21' E 151°36'0 0.1
2015-Jan-16 14:33S 33°21' E 151°36'0 0.1
2015-Jan-16 13:33S 33°21' E 151°36'0 0.0
2015-Jan-16 11:33S 33°21' E 151°36'0 0.0
2015-Jan-16 10:33S 33°21' E 151°36'0 0.0
2015-Jan-16 09:24S 33°21' E 151°36'5 0.1
2015-Jan-14 07:24S 33°18' E 151°42'1212.7
2015-Jan-14 06:27S 33°12' E 151°54'1313.9
2015-Jan-14 05:33S 33°05' E 152°06'1414.2
2015-Jan-14 04:33S 32°57' E 152°21'1515.4
2015-Jan-14 03:33S 32°50' E 152°36'1616.0
2015-Jan-14 02:33S 32°43' E 152°54'1414.2
2015-Jan-14 01:33S 32°38' E 153°10'1613.3
2015-Jan-14 00:19S 32°33' E 153°28'281 9.1
2015-Jan-12 17:33S 27°53' E 154°04'1615.5
2015-Jan-12 16:33S 27°37' E 154°04'1615.6
2015-Jan-12 15:31S 27°21' E 154°04'1815.7
2015-Jan-12 14:21S 27°03' E 154°04'1916.3
2015-Jan-12 13:12S 26°44' E 154°04'1416.3
2015-Jan-12 12:21S 26°30' E 154°04'1215.8
2015-Jan-12 11:34S 26°18' E 154°04'  
Track history (hours):
 
Tides and Currents Weather Stations Pressure Air Temp Water Temp Dewpoint Dewpoint Depression Visibility Wind Speed Wind Dir Waves Ship Positions

Cape Sakura

Last reported at 2015-Jan-20 15:21 UTC. Time now 2015-Jan-29 22:28 UTC.
Position S 26°40' E 154°04'.
Warning: this ship's position is 9 days out of date.

Length 292 m; draft 15.6 m.

Type: Cargo ship. MMSI: 432786000.

Date/timePositionNaut miles runAvg speedWind from/ knotsBaromVisibWave heightAir tempDewpointWater temp
2015-Jan-20 15:21S 26°40' E 154°04'10 9.3
2015-Jan-20 14:14S 26°50' E 154°04'1010.1
2015-Jan-20 13:14S 27°00' E 154°04'4010.9
2015-Jan-20 09:31S 27°41' E 154°04'290 9.4
2015-Jan-19 02:33S 32°23' E 152°48'9 8.7
2015-Jan-19 01:32S 32°31' E 152°44'1010.7
2015-Jan-19 00:33S 32°37' E 152°34'1212.3
2015-Jan-18 23:33S 32°45' E 152°23'1212.1
2015-Jan-18 22:34S 32°51' E 152°10'1211.7
2015-Jan-18 21:33S 32°55' E 151°57'8 7.7
2015-Jan-18 20:34S 32°55' E 151°48'2 2.1
2015-Jan-18 19:34S 32°53' E 151°46'0 0.0
2015-Jan-18 17:10S 32°53' E 151°46'0 0.0
2015-Jan-18 16:10S 32°53' E 151°46'0 0.0
2015-Jan-18 15:28S 32°53' E 151°46'0 0.0
2015-Jan-18 14:22S 32°53' E 151°46'0 0.0
2015-Jan-18 13:28S 32°53' E 151°46'0 0.0
2015-Jan-18 11:25S 32°53' E 151°46'0 0.0
2015-Jan-18 10:10S 32°53' E 151°46'0 0.0
2015-Jan-18 09:28S 32°53' E 151°46'0 0.0
2015-Jan-18 08:31S 32°53' E 151°46'0 0.0
2015-Jan-18 07:28S 32°53' E 151°46'0 0.0
2015-Jan-18 06:28S 32°53' E 151°46'0 0.0
2015-Jan-18 05:31S 32°53' E 151°46'0 0.0
2015-Jan-18 04:31S 32°53' E 151°46'0 0.0
2015-Jan-18 03:31S 32°53' E 151°46'0 0.0
2015-Jan-18 02:22S 32°53' E 151°46'0 0.0
2015-Jan-18 01:28S 32°53' E 151°46'0 0.0
2015-Jan-18 00:10S 32°53' E 151°46'0 0.0
2015-Jan-17 23:04S 32°53' E 151°46'0 0.0
2015-Jan-17 22:16S 32°53' E 151°46'0 0.0
2015-Jan-17 21:28S 32°53' E 151°46'0 0.0
2015-Jan-17 20:28S 32°53' E 151°46'0 0.0
2015-Jan-17 15:22S 32°53' E 151°46'0 0.0
2015-Jan-17 14:16S 32°53' E 151°46'0 0.0
2015-Jan-17 13:16S 32°53' E 151°46'0 0.0
2015-Jan-17 12:31S 32°53' E 151°46'0 0.0
2015-Jan-17 11:28S 32°53' E 151°46'0 0.0
2015-Jan-17 10:28S 32°53' E 151°46'0 0.0
2015-Jan-17 09:04S 32°53' E 151°46'0 0.0
2015-Jan-17 07:28S 32°53' E 151°46'0 0.0
2015-Jan-17 06:16S 32°53' E 151°46'1 1.2
2015-Jan-17 05:33S 32°54' E 151°46'5 5.1
2015-Jan-17 04:34S 32°57' E 151°51'9 8.5
2015-Jan-17 03:33S 33°05' E 151°51'1110.8
2015-Jan-17 02:32S 33°14' E 151°43'9 0.8
2015-Jan-16 16:12S 33°21' E 151°36'0 0.1
2015-Jan-16 15:33S 33°21' E 151°36'0 0.1
2015-Jan-16 14:33S 33°21' E 151°36'0 0.1
2015-Jan-16 13:33S 33°21' E 151°36'0 0.0
2015-Jan-16 11:33S 33°21' E 151°36'0 0.0
2015-Jan-16 10:33S 33°21' E 151°36'0 0.0
2015-Jan-16 09:24S 33°21' E 151°36'5 0.1
2015-Jan-14 07:24S 33°18' E 151°42'1212.7
2015-Jan-14 06:27S 33°12' E 151°54'1313.9
2015-Jan-14 05:33S 33°05' E 152°06'1414.2
2015-Jan-14 04:33S 32°57' E 152°21'1515.4
2015-Jan-14 03:33S 32°50' E 152°36'1616.0
2015-Jan-14 02:33S 32°43' E 152°54'1414.2
2015-Jan-14 01:33S 32°38' E 153°10'1613.3
2015-Jan-14 00:19S 32°33' E 153°28'281 9.1
2015-Jan-12 17:33S 27°53' E 154°04'1615.5
2015-Jan-12 16:33S 27°37' E 154°04'1615.6
2015-Jan-12 15:31S 27°21' E 154°04'1815.7
2015-Jan-12 14:21S 27°03' E 154°04'1916.3
2015-Jan-12 13:12S 26°44' E 154°04'1416.3
2015-Jan-12 12:21S 26°30' E 154°04'1215.8
2015-Jan-12 11:34S 26°18' E 154°04'  

Dump ship's entire track history